createdAt,value
2023-04-24T00:00:15.650Z,11.10
2023-04-24T00:03:17.992Z,11.10
2023-04-24T00:06:19.841Z,11.10
2023-04-24T00:09:21.538Z,11.10
2023-04-24T00:12:23.227Z,11.10
2023-04-24T00:15:24.992Z,11.10
2023-04-24T00:18:26.719Z,11.10
2023-04-24T00:21:28.452Z,11.10
2023-04-24T00:24:30.203Z,11.10
2023-04-24T00:27:31.879Z,11.00
2023-04-24T00:30:33.693Z,11.10
2023-04-24T00:33:35.421Z,11.10
2023-04-24T00:36:37.563Z,11.10
2023-04-24T00:39:39.374Z,11.10
2023-04-24T00:42:41.925Z,11.10
2023-04-24T00:45:44.009Z,11.10
2023-04-24T00:48:46.716Z,11.20
2023-04-24T00:51:50.140Z,11.10
2023-04-24T00:54:51.812Z,11.20
2023-04-24T00:57:53.840Z,11.20
2023-04-24T01:00:58.532Z,11.20
2023-04-24T01:04:00.611Z,11.20
2023-04-24T01:07:03.140Z,11.10
2023-04-24T01:10:05.290Z,11.10
2023-04-24T01:13:08.247Z,11.10
2023-04-24T01:16:10.104Z,11.10
2023-04-24T01:19:13.405Z,11.10
2023-04-24T01:22:16.080Z,11.10
2023-04-24T01:25:17.884Z,11.10
2023-04-24T01:28:19.752Z,11.00
2023-04-24T01:31:21.700Z,11.00
2023-04-24T01:34:23.617Z,10.90
2023-04-24T01:37:25.464Z,10.90
2023-04-24T01:40:27.157Z,10.90
2023-04-24T01:43:29.045Z,10.90
2023-04-24T01:46:35.664Z,10.90
2023-04-24T01:49:40.415Z,10.90
2023-04-24T01:52:42.492Z,10.90
2023-04-24T01:55:45.189Z,10.80
2023-04-24T01:58:50.966Z,10.80
2023-04-24T02:01:54.164Z,10.80
2023-04-24T02:04:55.826Z,10.70
2023-04-24T02:07:57.521Z,10.70
2023-04-24T02:10:59.175Z,10.70
2023-04-24T02:14:00.892Z,10.70
2023-04-24T02:17:02.632Z,10.60
2023-04-24T02:20:05.580Z,10.50
2023-04-24T02:23:07.373Z,10.50
2023-04-24T02:26:09.408Z,10.40
2023-04-24T02:29:11.420Z,10.40
2023-04-24T02:32:13.533Z,10.30
2023-04-24T02:35:15.789Z,10.30
2023-04-24T02:38:17.586Z,10.30
2023-04-24T02:41:19.260Z,10.30
2023-04-24T02:44:21.077Z,10.30
2023-04-24T02:47:22.757Z,10.30
2023-04-24T02:50:24.711Z,10.30
2023-04-24T02:53:26.557Z,10.30
2023-04-24T02:56:28.268Z,10.30
2023-04-24T02:59:31.557Z,10.30
2023-04-24T03:02:33.382Z,10.30
2023-04-24T03:05:35.291Z,10.20
2023-04-24T03:08:37.195Z,10.20
2023-04-24T03:11:39.346Z,10.20
2023-04-24T03:14:43.491Z,10.10
2023-04-24T03:17:45.208Z,10.10
2023-04-24T03:20:48.165Z,10.10
2023-04-24T03:23:49.894Z,10.10
2023-04-24T03:26:51.768Z,10.00
2023-04-24T03:30:13.488Z,10.00
2023-04-24T03:33:23.210Z,10.00
2023-04-24T03:36:33.746Z,10.00
2023-04-24T03:39:35.653Z,10.10
2023-04-24T03:42:39.346Z,10.10
2023-04-24T03:45:41.565Z,10.10
2023-04-24T03:48:44.138Z,10.10
2023-04-24T03:51:46.405Z,10.00
2023-04-24T03:54:59.300Z,10.10
2023-04-24T03:58:02.642Z,10.10
2023-04-24T04:01:04.627Z,10.10
2023-04-24T04:04:32.457Z,10.10
2023-04-24T04:07:35.440Z,10.00
2023-04-24T04:10:37.619Z,10.00
2023-04-24T04:13:40.474Z,10.10
2023-04-24T04:16:43.089Z,10.00
2023-04-24T04:19:45.820Z,10.00
2023-04-24T04:22:47.577Z,10.00
2023-04-24T04:25:55.864Z,10.00
2023-04-24T04:29:01.996Z,9.90
2023-04-24T04:32:04.831Z,9.90
2023-04-24T04:35:07.170Z,9.90
2023-04-24T04:38:09.614Z,9.90
2023-04-24T04:41:35.947Z,9.90
2023-04-24T04:44:39.558Z,9.90
2023-04-24T04:47:42.838Z,9.90
2023-04-24T04:50:45.027Z,9.90
2023-04-24T04:53:47.142Z,9.90
2023-04-24T04:56:51.416Z,10.00
2023-04-24T04:59:53.433Z,9.90
2023-04-24T05:03:20.936Z,10.00
2023-04-24T05:06:28.557Z,10.00
2023-04-24T05:09:30.694Z,10.00
2023-04-24T05:12:37.859Z,10.00
2023-04-24T05:15:39.977Z,10.00
2023-04-24T05:18:41.982Z,10.00
2023-04-24T05:21:46.627Z,10.10
2023-04-24T05:24:48.929Z,10.00
2023-04-24T05:28:10.947Z,10.00
2023-04-24T05:31:13.663Z,10.00
2023-04-24T05:34:16.989Z,10.00
2023-04-24T05:37:20.741Z,10.10
2023-04-24T05:40:22.658Z,10.10
2023-04-24T05:43:24.489Z,10.00
2023-04-24T05:46:26.413Z,10.10
2023-04-24T05:49:28.209Z,10.10
2023-04-24T05:52:30.474Z,10.10
2023-04-24T05:55:32.659Z,10.10
2023-04-24T05:58:34.397Z,10.10
2023-04-24T06:01:39.455Z,10.00
2023-04-24T06:04:47.719Z,10.00
2023-04-24T06:07:49.700Z,10.10
2023-04-24T06:10:52.238Z,10.10
2023-04-24T06:13:56.527Z,10.00
2023-04-24T06:17:13.751Z,9.90
2023-04-24T06:20:16.632Z,10.00
2023-04-24T06:23:18.363Z,10.00
2023-04-24T06:26:20.098Z,9.90
2023-04-24T06:29:21.740Z,9.80
2023-04-24T06:32:25.162Z,9.80
2023-04-24T06:35:27.029Z,9.80
2023-04-24T06:38:30.536Z,9.90
2023-04-24T06:41:32.217Z,9.80
2023-04-24T06:44:38.596Z,9.80
2023-04-24T06:47:40.322Z,9.80
2023-04-24T06:50:41.997Z,9.80
2023-04-24T06:53:43.666Z,9.70
2023-04-24T06:56:47.550Z,9.70
2023-04-24T06:59:49.219Z,9.60
2023-04-24T07:02:51.354Z,9.70
2023-04-24T07:05:54.241Z,9.60
2023-04-24T07:08:56.888Z,9.70
2023-04-24T07:11:58.587Z,9.60
2023-04-24T07:15:01.520Z,9.70
2023-04-24T07:18:05.588Z,9.70
2023-04-24T07:21:08.197Z,9.60
2023-04-24T07:24:11.713Z,9.60
2023-04-24T07:27:15.822Z,9.50
2023-04-24T07:30:17.722Z,9.50
2023-04-24T07:33:19.460Z,9.50
2023-04-24T07:36:21.147Z,9.50
2023-04-24T07:39:23.100Z,9.50
2023-04-24T07:42:25.052Z,9.60
2023-04-24T07:45:28.928Z,9.50
2023-04-24T07:48:30.713Z,9.50
2023-04-24T07:51:34.549Z,9.50
2023-04-24T07:54:36.500Z,9.50
2023-04-24T07:57:42.066Z,9.60
2023-04-24T08:00:43.823Z,9.80
2023-04-24T08:03:45.813Z,9.80
2023-04-24T08:06:49.348Z,9.70
2023-04-24T08:09:51.197Z,9.60
2023-04-24T08:12:53.231Z,9.60
2023-04-24T08:15:54.949Z,9.60
2023-04-24T08:18:56.772Z,9.50
2023-04-24T08:21:58.449Z,9.60
2023-04-24T08:25:01.256Z,9.60
2023-04-24T08:28:05.120Z,9.70
2023-04-24T08:31:06.944Z,9.70
2023-04-24T08:34:11.008Z,9.70
2023-04-24T08:37:13.116Z,9.60
2023-04-24T08:40:16.537Z,9.60
2023-04-24T08:43:18.357Z,9.50
2023-04-24T08:46:22.223Z,9.40
2023-04-24T08:49:26.248Z,9.40
2023-04-24T08:52:29.474Z,9.50
2023-04-24T08:55:31.796Z,9.50
2023-04-24T08:58:34.530Z,9.50
2023-04-24T09:01:38.295Z,9.30
2023-04-24T09:04:42.230Z,9.20
2023-04-24T09:07:47.273Z,9.20
2023-04-24T09:10:51.190Z,9.20
2023-04-24T09:13:54.020Z,9.20
2023-04-24T09:16:55.827Z,9.50
2023-04-24T09:19:57.641Z,9.50
2023-04-24T09:22:59.845Z,9.60
2023-04-24T09:26:03.461Z,9.50
2023-04-24T09:29:05.969Z,9.60
2023-04-24T09:32:26.098Z,9.50
2023-04-24T09:35:27.878Z,9.60
2023-04-24T09:38:38.213Z,8.90
2023-04-24T09:41:50.150Z,9.70
2023-04-24T09:44:56.963Z,9.60
2023-04-24T09:48:09.708Z,9.50
2023-04-24T09:51:12.460Z,9.50
2023-04-24T09:54:20.836Z,9.50
2023-04-24T09:57:22.947Z,9.50
2023-04-24T10:00:30.387Z,9.50
2023-04-24T10:03:35.894Z,9.60
2023-04-24T10:06:44.574Z,9.40
2023-04-24T10:09:46.623Z,9.50
2023-04-24T10:12:48.565Z,9.30
2023-04-24T10:15:50.953Z,9.10
2023-04-24T10:18:52.938Z,9.20
2023-04-24T10:21:56.617Z,9.00
2023-04-24T10:24:59.642Z,9.00
2023-04-24T10:28:02.666Z,8.80
2023-04-24T10:31:04.758Z,8.80
2023-04-24T10:34:09.917Z,8.90
2023-04-24T10:37:11.696Z,8.90
2023-04-24T10:40:18.932Z,8.90
2023-04-24T10:43:20.727Z,8.90
2023-04-24T10:46:22.566Z,8.80
2023-04-24T10:49:32.107Z,8.80
2023-04-24T10:52:52.229Z,8.90
2023-04-24T10:56:08.668Z,8.90
2023-04-24T10:59:12.220Z,8.80
2023-04-24T11:02:18.490Z,8.80
2023-04-24T11:05:21.626Z,8.80
2023-04-24T11:08:26.833Z,8.80
2023-04-24T11:11:30.608Z,8.60
2023-04-24T11:14:58.976Z,8.90
2023-04-24T11:18:01.117Z,8.90
2023-04-24T11:21:12.087Z,8.80
2023-04-24T11:24:39.976Z,8.70
2023-04-24T11:27:49.077Z,8.90
2023-04-24T11:30:52.119Z,8.80
2023-04-24T11:33:54.376Z,8.90
2023-04-24T11:36:56.453Z,9.10
2023-04-24T11:39:59.712Z,9.20
2023-04-24T11:43:02.016Z,9.10
2023-04-24T11:46:05.577Z,9.20
2023-04-24T11:49:08.184Z,9.50
2023-04-24T11:52:10.129Z,9.30
2023-04-24T11:55:18.452Z,9.30
2023-04-24T11:58:22.995Z,9.20
2023-04-24T12:01:24.740Z,9.20
2023-04-24T12:04:26.604Z,9.30
2023-04-24T12:07:28.528Z,9.20
2023-04-24T12:10:31.853Z,9.40
2023-04-24T12:13:34.945Z,9.80
2023-04-24T12:16:36.718Z,10.10
2023-04-24T12:19:38.479Z,10.20
2023-04-24T12:22:55.842Z,10.60
2023-04-24T12:26:02.306Z,10.40
2023-04-24T12:29:05.109Z,10.50
2023-04-24T12:32:17.192Z,10.10
2023-04-24T12:35:24.696Z,10.00
2023-04-24T12:38:28.191Z,9.80
2023-04-24T12:41:31.867Z,9.50
2023-04-24T12:44:35.583Z,9.50
2023-04-24T12:47:37.594Z,9.70
2023-04-24T12:50:41.465Z,9.80
2023-04-24T12:53:43.829Z,9.90
2023-04-24T12:56:45.685Z,9.90
2023-04-24T12:59:47.380Z,9.90
2023-04-24T13:02:49.217Z,9.90
2023-04-24T13:05:51.066Z,9.90
2023-04-24T13:08:52.911Z,10.00
2023-04-24T13:11:57.350Z,9.90
2023-04-24T13:14:59.690Z,9.80
2023-04-24T13:18:01.434Z,9.70
2023-04-24T13:21:03.217Z,9.60
2023-04-24T13:24:05.834Z,9.60
2023-04-24T13:27:07.801Z,9.80
2023-04-24T13:30:09.995Z,10.20
2023-04-24T13:33:11.758Z,10.20
2023-04-24T13:36:13.504Z,10.40
2023-04-24T13:39:15.358Z,10.40
2023-04-24T13:42:17.050Z,10.10
2023-04-24T13:45:25.133Z,9.90
2023-04-24T13:48:27.357Z,9.90
2023-04-24T13:51:29.051Z,10.00
2023-04-24T13:54:30.836Z,10.10
2023-04-24T13:57:32.628Z,10.20
2023-04-24T14:00:34.378Z,10.10
2023-04-24T14:03:40.340Z,9.80
2023-04-24T14:06:42.153Z,9.70
2023-04-24T14:09:44.211Z,9.60
2023-04-24T14:12:45.938Z,9.50
2023-04-24T14:15:47.874Z,9.40
2023-04-24T14:18:49.588Z,9.30
2023-04-24T14:21:51.408Z,9.20
2023-04-24T14:24:53.084Z,9.10
2023-04-24T14:27:55.085Z,9.10
2023-04-24T14:30:56.730Z,9.20
2023-04-24T14:33:58.640Z,9.20
2023-04-24T14:37:00.360Z,9.10
2023-04-24T14:43:08.365Z,9.00
2023-04-24T14:46:10.079Z,9.10
2023-04-24T14:49:13.368Z,9.10
2023-04-24T14:52:15.182Z,9.00
2023-04-24T14:55:17.224Z,8.90
2023-04-24T14:58:19.122Z,8.90
2023-04-24T15:01:20.898Z,8.90
2023-04-24T15:04:22.848Z,8.80
2023-04-24T15:07:24.683Z,9.10
2023-04-24T15:10:26.539Z,9.50
2023-04-24T15:13:28.419Z,9.70
2023-04-24T15:16:30.387Z,9.80
2023-04-24T15:19:32.361Z,9.60
2023-04-24T15:22:34.255Z,9.60
2023-04-24T15:25:36.357Z,9.80
2023-04-24T15:28:38.010Z,9.90
2023-04-24T15:31:41.159Z,9.70
2023-04-24T15:34:43.063Z,10.10
2023-04-24T15:37:45.485Z,10.00
2023-04-24T15:40:47.156Z,10.10
2023-04-24T15:43:49.142Z,10.00
2023-04-24T15:46:52.319Z,9.90
2023-04-24T15:49:54.618Z,9.70
2023-04-24T15:52:56.317Z,9.40
2023-04-24T15:55:58.217Z,9.40
2023-04-24T15:59:00.788Z,9.60
2023-04-24T16:02:04.669Z,10.00
2023-04-24T16:05:07.413Z,11.30
2023-04-24T16:08:10.842Z,11.00
2023-04-24T16:11:12.577Z,13.20
2023-04-24T16:14:14.356Z,14.10
2023-04-24T16:17:16.026Z,13.30
2023-04-24T16:20:18.104Z,13.20
2023-04-24T16:23:19.808Z,13.20
2023-04-24T16:26:21.488Z,13.30
2023-04-24T16:29:23.318Z,13.20
2023-04-24T16:32:25.148Z,13.20
2023-04-24T16:35:26.825Z,12.50
2023-04-24T16:38:28.569Z,11.60
2023-04-24T16:41:31.058Z,11.30
2023-04-24T16:44:32.729Z,11.10
2023-04-24T16:47:34.527Z,11.00
2023-04-24T16:50:36.513Z,11.00
2023-04-24T16:53:38.197Z,10.90
2023-04-24T16:56:40.954Z,10.80
2023-04-24T16:59:42.645Z,10.80
2023-04-24T17:02:48.376Z,10.60
2023-04-24T17:05:50.644Z,10.60
2023-04-24T17:08:52.516Z,10.50
2023-04-24T17:11:54.220Z,10.50
2023-04-24T17:14:55.924Z,10.60
2023-04-24T17:17:57.680Z,10.60
2023-04-24T17:20:59.353Z,10.60
2023-04-24T17:24:01.082Z,10.70
2023-04-24T17:27:13.884Z,11.50
2023-04-24T17:30:17.618Z,11.20
2023-04-24T17:33:19.342Z,11.00
2023-04-24T17:36:21.081Z,10.90
2023-04-24T17:39:22.752Z,11.10
2023-04-24T17:42:24.645Z,11.00
2023-04-24T17:45:26.589Z,10.70
2023-04-24T17:48:28.256Z,10.50
2023-04-24T17:51:29.920Z,10.60
2023-04-24T17:54:31.693Z,10.80
2023-04-24T17:57:33.728Z,10.40
2023-04-24T18:00:36.293Z,10.20
2023-04-24T18:03:40.928Z,10.20
2023-04-24T18:06:42.749Z,9.70
2023-04-24T18:09:44.434Z,9.60
2023-04-24T18:12:47.268Z,9.50
2023-04-24T18:15:48.971Z,9.40
2023-04-24T18:18:50.950Z,9.30
2023-04-24T18:21:52.707Z,9.40
2023-04-24T18:24:54.407Z,9.30
2023-04-24T18:27:56.233Z,9.40
2023-04-24T18:30:58.653Z,9.30
2023-04-24T18:34:00.603Z,9.20
2023-04-24T18:37:02.325Z,9.10
2023-04-24T18:40:04.255Z,9.00
2023-04-24T18:43:06.467Z,8.90
2023-04-24T18:46:08.244Z,8.90
2023-04-24T18:49:11.533Z,8.80
2023-04-24T18:52:13.280Z,8.80
2023-04-24T18:55:15.169Z,8.60
2023-04-24T18:58:17.055Z,8.70
2023-04-24T19:01:18.814Z,8.70
2023-04-24T19:04:20.928Z,8.60
2023-04-24T19:07:22.990Z,8.70
2023-04-24T19:10:24.735Z,8.50
2023-04-24T19:13:26.572Z,8.40
2023-04-24T19:16:28.360Z,8.30
2023-04-24T19:19:31.900Z,8.20
2023-04-24T19:22:34.524Z,8.20
2023-04-24T19:25:36.426Z,8.10
2023-04-24T19:28:45.712Z,8.00
2023-04-24T19:31:47.496Z,8.00
2023-04-24T19:34:49.287Z,7.90
2023-04-24T19:37:51.007Z,7.90
2023-04-24T19:40:53.078Z,7.80
2023-04-24T19:43:54.780Z,8.00
2023-04-24T19:46:56.918Z,7.90
2023-04-24T19:50:00.066Z,7.80
2023-04-24T19:53:01.754Z,7.70
2023-04-24T19:56:03.603Z,7.70
2023-04-24T19:59:05.526Z,8.40
2023-04-24T20:02:07.794Z,7.70
2023-04-24T20:05:10.081Z,7.60
2023-04-24T20:08:12.206Z,7.60
2023-04-24T20:11:14.418Z,7.50
2023-04-24T20:14:16.182Z,7.50
2023-04-24T20:17:18.121Z,7.40
2023-04-24T20:20:19.882Z,7.30
2023-04-24T20:23:21.599Z,7.40
2023-04-24T20:26:23.467Z,7.30
2023-04-24T20:29:26.186Z,7.20
2023-04-24T20:35:59.155Z,7.20
2023-04-24T20:39:01.438Z,7.30
2023-04-24T20:42:03.766Z,7.20
2023-04-24T20:48:29.102Z,7.10
2023-04-24T20:58:39.673Z,7.00
2023-04-24T21:01:44.092Z,8.40
2023-04-24T21:04:45.794Z,7.00
2023-04-24T21:07:47.656Z,6.90
2023-04-24T21:10:49.407Z,6.90
2023-04-24T21:13:51.525Z,6.90
2023-04-24T21:16:56.486Z,6.80
2023-04-24T21:19:58.821Z,6.90
2023-04-24T21:23:00.567Z,6.80
2023-04-24T21:26:05.677Z,6.90
2023-04-24T21:29:07.489Z,6.80
2023-04-24T21:32:09.220Z,6.80
2023-04-24T21:35:11.059Z,6.80
2023-04-24T21:38:12.764Z,6.80
2023-04-24T21:41:14.654Z,6.90
2023-04-24T21:44:16.458Z,6.90
2023-04-24T21:47:18.221Z,6.90
2023-04-24T21:50:20.088Z,7.00
2023-04-24T21:53:21.834Z,6.90
2023-04-24T21:56:23.716Z,7.00
2023-04-24T21:59:25.525Z,7.00
2023-04-24T22:02:27.616Z,6.90
2023-04-24T22:05:30.728Z,6.90
2023-04-24T22:08:32.728Z,6.80
2023-04-24T22:11:34.617Z,6.80
2023-04-24T22:14:36.584Z,6.70
2023-04-24T22:17:39.512Z,6.70
2023-04-24T22:20:41.247Z,6.70
2023-04-24T22:23:43.000Z,6.60
2023-04-24T22:26:45.696Z,6.50
2023-04-24T22:29:47.339Z,6.50
2023-04-24T22:32:49.145Z,6.40
2023-04-24T22:35:50.831Z,6.40
2023-04-24T22:38:52.723Z,6.40
2023-04-24T22:41:54.657Z,6.40
2023-04-24T22:44:56.469Z,6.40
2023-04-24T22:47:58.234Z,6.40
2023-04-24T22:50:59.901Z,6.60
2023-04-24T22:54:04.106Z,6.60
2023-04-24T22:57:06.045Z,6.70
2023-04-24T23:00:11.037Z,6.70
2023-04-24T23:03:13.963Z,6.70
2023-04-24T23:06:15.775Z,6.80
2023-04-24T23:09:17.487Z,6.80
2023-04-24T23:12:19.183Z,6.80
2023-04-24T23:15:20.968Z,6.70
2023-04-24T23:18:22.629Z,6.80
2023-04-24T23:21:24.396Z,6.80
2023-04-24T23:24:26.640Z,6.80
2023-04-24T23:27:28.372Z,6.80
2023-04-24T23:30:30.190Z,6.70
2023-04-24T23:33:31.847Z,6.70
2023-04-24T23:36:33.689Z,6.70
2023-04-24T23:39:35.552Z,6.60
2023-04-24T23:42:37.254Z,6.60
2023-04-24T23:45:40.162Z,6.70
2023-04-24T23:48:41.849Z,6.60
2023-04-24T23:51:43.664Z,6.60
2023-04-24T23:54:45.713Z,6.70
2023-04-24T23:57:47.409Z,6.70
